Time;durP1;ratioP1;P1;durP2;ratioP2;P2;SDS_P1;SDS_P2;PMS_P1;PMS_P2;Temp;Humidity;BMP_temperature;BMP_pressure;BME280_temperature;BME280_humidity;BME280_pressure;Samples;Min_cycle;Max_cycle;Signal;HPM_P1;HPM_P2
2022/05/10 07:28:02;;;;;;;;;13.75;13.75;;;;;19.74;48.95;102144.47;5050403;28;45838;-91
2022/05/10 07:30:56;;;;;;;;;14.80;12.60;;;;;19.95;48.86;102146.31;5047782;28;45454;-92
2022/05/10 07:33:25;;;;;;;;;12.80;11.00;;;;;19.75;48.29;102081.56;5040479;28;45714;-94
2022/05/10 07:42:40;;;;;;;;;12.20;12.20;;;;;20.65;47.69;102144.03;4971067;28;45702;-94
2022/05/10 07:49:17;;;;;;;;;;;;;;;;;;;;;
2022/05/10 07:52:05;;;;;;;;;;;;;;;;;;;;;
2022/05/10 07:55:18;;;;;;;;;13.80;13.00;;;;;21.22;46.60;102148.03;4834011;29;73282;-93
2022/05/10 07:58:00;;;;;;;;;11.00;11.00;;;;;20.28;46.63;101967.59;4844478;29;45899;-92
2022/05/10 08:01:07;;;;;;;;;;;;;;;;;;;;;
2022/05/10 08:04:06;;;;;;;;;12.20;9.20;;;;;21.19;46.24;102088.94;4840265;29;76193;-92
2022/05/10 08:06:58;;;;;;;;;;;;;;;;;;;;;
2022/05/10 08:13:37;;;;;;;;;;;;;;;;;;;;;
2022/05/10 08:16:00;;;;;;;;;10.20;9.40;;;;;21.82;45.15;102137.25;4792642;29;46651;-93
2022/05/10 08:18:48;;;;;;;;;10.40;10.20;;;;;21.93;45.05;102155.16;4782921;29;46211;-93
2022/05/10 08:21:16;;;;;;;;;12.40;10.20;;;;;21.86;44.55;102127.84;4812373;29;46033;-93
2022/05/10 08:23:57;;;;;;;;;12.20;10.20;;;;;21.73;44.81;102084.94;4809463;29;46010;-93
2022/05/10 08:26:25;;;;;;;;;9.80;9.40;;;;;21.63;44.17;102079.53;4855451;29;46891;-93
2022/05/10 08:28:51;;;;;;;;;10.80;9.20;;;;;22.16;44.53;102138.63;4863850;29;46955;-93
2022/05/10 08:31:21;;;;;;;;;9.50;9.50;;;;;21.64;44.20;102059.66;4848701;29;45513;-93
2022/05/10 08:33:47;;;;;;;;;10.40;10.20;;;;;21.91;44.11;102081.53;4868260;28;46649;-93
2022/05/10 08:36:12;;;;;;;;;10.00;10.00;;;;;21.67;43.57;102047.69;4960301;28;47074;-93
2022/05/10 08:38:38;;;;;;;;;11.00;10.25;;;;;22.13;43.86;102120.84;4953677;28;45370;-93
2022/05/10 08:41:11;;;;;;;;;11.75;10.00;;;;;22.39;43.97;102143.66;4950025;28;45444;-93
2022/05/10 08:43:42;;;;;;;;;12.60;11.40;;;;;21.95;43.75;102066.72;4947528;28;45509;-92
2022/05/10 08:46:13;;;;;;;;;11.80;10.00;;;;;22.47;43.89;102151.88;4938091;28;47833;-92
2022/05/10 08:48:39;;;;;;;;;10.60;10.40;;;;;22.00;43.49;102071.69;4938714;28;45610;-93
2022/05/10 08:51:04;;;;;;;;;10.00;10.00;;;;;21.84;43.62;102043.41;4937004;28;45303;-93
2022/05/10 08:53:33;;;;;;;;;11.50;7.75;;;;;22.07;43.81;102068.25;5001714;28;45857;-93
2022/05/10 08:56:14;;;;;;;;;13.00;13.00;;;;;21.96;44.24;102050.38;4994060;28;46815;-93
2022/05/10 08:58:44;;;;;;;;;12.40;10.40;;;;;22.18;43.78;102069.91;5004090;28;45440;-92
2022/05/10 09:01:13;;;;;;;;;14.20;9.80;;;;;22.58;43.83;102129.22;5025876;28;46672;-93
2022/05/10 09:03:50;;;;;;;;;10.00;10.00;;;;;22.24;43.48;102073.00;4980844;28;45518;-93
2022/05/10 09:06:37;;;;;;;;;12.00;10.20;;;;;22.21;43.26;102055.25;4999473;28;47619;-94
2022/05/10 09:09:21;;;;;;;;;10.20;10.20;;;;;22.83;43.62;102162.00;5008577;28;45548;-90
2022/05/10 09:12:14;;;;;;;;;9.40;9.40;;;;;22.46;43.72;102103.38;5008269;28;45768;-89
2022/05/10 09:14:52;;;;;;;;;10.20;9.20;;;;;22.58;43.69;102110.28;4990577;28;45383;-90
2022/05/10 09:17:18;;;;;;;;;12.20;10.40;;;;;22.33;42.92;102063.16;4992793;28;48165;-89
2022/05/10 09:19:44;;;;;;;;;11.00;10.25;;;;;22.81;43.12;102142.34;4993767;28;45577;-89
2022/05/10 09:22:36;;;;;;;;;9.00;9.00;;;;;22.58;42.77;102085.09;4979141;28;45487;-90
2022/05/10 09:25:02;;;;;;;;;10.20;10.20;;;;;23.06;42.54;102161.56;5023833;28;45550;-89
2022/05/10 09:27:32;;;;;;;;;10.25;9.00;;;;;22.47;42.48;102061.81;5024683;28;47325;-90
2022/05/10 09:29:58;;;;;;;;;10.20;8.60;;;;;23.13;41.75;102150.16;5041527;28;45179;-90
2022/05/10 09:35:22;;;;;;;;;10.80;9.60;;;;;23.22;42.00;102161.91;5015946;28;45488;-91
2022/05/10 09:38:00;;;;;;;;;11.20;9.00;;;;;22.62;41.72;102062.16;5002883;28;46282;-91
2022/05/10 09:40:34;;;;;;;;;9.00;9.00;;;;;23.20;41.08;102142.28;4979890;28;45817;-90
2022/05/10 09:43:25;;;;;;;;;9.20;9.20;;;;;23.33;41.52;102158.13;4988264;28;45420;-89
2022/05/10 09:46:21;;;;;;;;;8.20;8.00;;;;;23.38;41.07;102159.38;4993386;28;45631;-93
2022/05/10 09:48:47;;;;;;;;;10.40;9.60;;;;;23.21;40.64;102119.63;5022228;28;46359;-90
2022/05/10 09:51:32;;;;;;;;;8.60;8.60;;;;;23.46;41.36;102155.91;4991609;28;45659;-91
2022/05/10 09:53:57;;;;;;;;;11.60;8.60;;;;;23.27;40.69;102108.16;5024575;28;45741;-91
2022/05/10 09:56:23;;;;;;;;;11.00;10.00;;;;;23.55;40.72;102147.88;4993474;28;45556;-90
2022/05/10 09:59:11;;;;;;;;;9.25;9.25;;;;;22.97;41.16;102048.88;5013431;28;46746;-89
2022/05/10 10:01:39;;;;;;;;;11.00;9.80;;;;;23.61;40.46;102147.22;4994414;28;50469;-90
2022/05/10 10:04:20;;;;;;;;;10.00;10.00;;;;;23.03;40.77;102053.66;5030412;28;45348;-90
2022/05/10 10:07:01;;;;;;;;;10.40;8.60;;;;;23.26;40.53;102079.41;5011528;28;45554;-91
2022/05/10 10:09:31;;;;;;;;;11.00;9.60;;;;;23.24;40.57;102071.41;4981703;28;48282;-90
2022/05/10 10:11:57;;;;;;;;;10.40;10.40;;;;;23.21;40.45;102055.47;4978218;28;45539;-90
2022/05/10 10:14:33;;;;;;;;;12.00;9.60;;;;;23.36;41.03;102073.88;4976743;28;49077;-90
2022/05/10 10:17:02;;;;;;;;;9.20;9.20;;;;;23.50;40.04;102081.44;4994983;28;45719;-92
2022/05/10 10:19:36;;;;;;;;;14.40;11.40;;;;;23.89;40.00;102133.59;4977156;28;47632;-92
2022/05/10 10:22:32;;;;;;;;;11.60;11.60;;;;;23.31;40.41;102043.72;4985745;28;45661;-90
2022/05/10 10:25:13;;;;;;;;;9.80;9.80;;;;;23.97;40.08;102123.81;4983533;28;45427;-90
2022/05/10 10:28:02;;;;;;;;;8.60;8.60;;;;;23.51;40.39;102060.69;5024768;28;47003;-93
2022/05/10 10:30:36;;;;;;;;;7.60;7.00;;;;;23.32;39.67;102023.78;4993191;28;46894;-89
2022/05/10 10:33:19;;;;;;;;;9.00;8.80;;;;;23.45;39.86;102029.63;5004627;28;45776;-88
2022/05/10 10:35:57;;;;;;;;;8.00;8.00;;;;;23.78;39.37;102079.66;5006256;28;45595;-93
2022/05/10 10:38:31;;;;;;;;;7.20;7.20;;;;;24.16;39.20;102118.16;4980888;28;45593;-92
2022/05/10 10:41:01;;;;;;;;;8.20;8.20;;;;;23.77;38.62;102059.00;5022372;28;48007;-92
2022/05/10 10:43:47;;;;;;;;;9.60;9.60;;;;;24.24;39.45;102130.06;4993098;28;47410;-90
2022/05/10 10:46:36;;;;;;;;;8.40;7.40;;;;;23.60;39.28;102018.25;5006761;28;45705;-94
2022/05/10 11:22:26;;;;;;;;;9.60;8.60;;;;;24.42;38.73;102061.34;5070185;23;45100;-91
2022/05/10 11:25:18;;;;;;;;;7.00;7.00;;;;;24.57;39.67;102081.44;4979404;28;47043;-91
2022/05/10 11:28:41;;;;;;;;;7.00;6.60;;;;;24.11;40.09;102012.09;4962784;28;45500;-92
2022/05/10 11:31:36;;;;;;;;;8.20;8.20;;;;;24.29;38.75;102027.44;4940536;28;45660;-90
2022/05/10 11:34:56;;;;;;;;;9.80;7.80;;;;;24.67;38.74;102062.28;4870734;29;45879;-90
2022/05/10 11:37:29;;;;;;;;;8.20;6.60;;;;;24.27;38.08;102000.44;4795367;29;47302;-91
2022/05/10 11:40:42;;;;;;;;;;;;;;;;;;;;;
2022/05/10 11:43:43;;;;;;;;;6.80;6.80;;;;;24.80;39.17;102053.69;4812906;29;69380;-91
2022/05/10 11:46:26;;;;;;;;;8.80;7.60;;;;;24.82;38.69;102051.63;4820202;29;45513;-92
2022/05/10 11:48:58;;;;;;;;;8.00;8.00;;;;;24.85;38.60;102044.16;4804687;29;45360;-91
2022/05/10 11:52:00;;;;;;;;;8.80;8.80;;;;;24.41;39.18;101978.31;4821806;29;45686;-92
2022/05/10 11:54:25;;;;;;;;;8.00;8.00;;;;;24.92;38.41;102045.22;4821012;29;45573;-91
2022/05/10 11:56:51;;;;;;;;;9.00;8.00;;;;;24.21;38.60;101916.22;4797065;29;45496;-91
2022/05/10 11:59:24;;;;;;;;;7.75;7.75;;;;;24.72;39.16;102002.13;4786961;29;47060;-91
2022/05/10 12:01:51;;;;;;;;;9.20;9.20;;;;;24.46;38.69;101952.41;4786919;29;45817;-91
2022/05/10 12:04:28;;;;;;;;;9.40;9.00;;;;;25.00;39.10;102031.66;4788066;29;45515;-91
2022/05/10 12:06:53;;;;;;;;;9.00;9.00;;;;;24.91;38.46;102021.81;4820326;29;45618;-92
2022/05/10 12:09:53;;;;;;;;;10.00;10.00;;;;;24.32;38.77;101913.22;4793116;29;46830;-93
2022/05/10 12:12:31;;;;;;;;;8.40;8.20;;;;;25.09;38.86;102018.09;4953592;28;45492;-92
2022/05/10 12:24:47;;;;;;;;;;;;;;;;;;;;;
2022/05/10 12:31:34;;;;;;;;;11.00;8.00;;;;;24.47;38.99;101883.56;4883814;29;45478;-93
2022/05/10 12:37:36;;;;;;;;;7.60;7.20;;;;;25.31;38.47;101996.72;4843773;29;44855;-94
2022/05/10 12:40:34;;;;;;;;;9.00;7.00;;;;;25.30;39.19;101997.75;4843905;29;45359;-94
2022/05/10 16:53:27;;;;;;;;;4.00;4.00;;;;;27.03;37.67;101855.72;5790556;23;46621;-96
2022/05/10 17:04:02;;;;;;;;;3.80;3.80;;;;;26.67;37.50;101785.50;5451392;23;46077;-95
2022/05/10 17:06:32;;;;;;;;;6.60;4.60;;;;;26.47;37.86;101758.00;4952118;28;45316;-96
2022/05/10 17:09:11;;;;;;;;;;;;;;;;;;;;;
2022/05/10 17:11:44;;;;;;;;;4.40;4.40;;;;;26.40;37.56;101748.84;5138728;23;71842;-95
2022/05/10 17:14:13;;;;;;;;;3.00;3.00;;;;;27.01;37.36;101850.47;4925967;28;47186;-95
2022/05/10 17:16:44;;;;;;;;;6.00;4.20;;;;;26.68;37.94;101783.59;4926530;28;45343;-94
2022/05/10 17:19:38;;;;;;;;;5.40;4.20;;;;;27.06;38.23;101831.69;4927710;28;45673;-94
2022/05/10 17:22:52;;;;;;;;;3.00;2.80;;;;;26.79;37.37;101788.59;4923506;28;45532;-93
2022/05/10 17:25:40;;;;;;;;;4.20;4.20;;;;;26.81;36.84;101799.31;4936784;28;46989;-94
2022/05/10 17:31:45;;;;;;;;;3.80;3.80;;;;;27.31;36.68;101853.22;4946072;28;44962;-95
2022/05/10 17:34:20;;;;;;;;;4.20;4.00;;;;;26.71;35.83;101758.75;4938569;28;45684;-96
2022/05/10 17:36:46;;;;;;;;;5.60;5.00;;;;;26.89;36.67;101788.31;4909447;28;47013;-92
2022/05/10 17:39:15;;;;;;;;;5.75;5.75;;;;;26.56;36.48;101747.88;4906227;28;47033;-96
2022/05/10 17:41:41;;;;;;;;;4.80;4.80;;;;;26.92;36.01;101814.31;4939498;28;45496;-96
2022/05/10 17:44:06;;;;;;;;;6.25;5.00;;;;;27.18;36.66;101862.06;4933067;28;45498;-94
2022/05/10 17:46:32;;;;;;;;;3.00;2.75;;;;;26.77;36.62;101796.09;4922874;28;47616;-94
2022/05/10 17:48:59;;;;;;;;;4.00;4.00;;;;;26.81;35.96;101801.19;4938325;28;45601;-95
2022/05/10 17:51:25;;;;;;;;;5.00;4.80;;;;;26.72;35.93;101787.66;4907314;28;46265;-95
2022/05/10 17:53:54;;;;;;;;;4.25;4.25;;;;;26.65;35.85;101779.38;4938355;28;45669;-94
2022/05/10 17:56:23;;;;;;;;;6.00;4.80;;;;;27.07;35.92;101838.84;4967775;28;47266;-95
2022/05/10 17:58:49;;;;;;;;;4.80;4.00;;;;;26.87;36.19;101805.88;4951066;28;45307;-96
2022/05/10 18:01:16;;;;;;;;;4.00;4.00;;;;;26.45;35.69;101749.13;4932625;28;45844;-95
2022/05/10 18:03:44;;;;;;;;;3.80;3.80;;;;;26.77;35.51;101790.66;4925984;28;47377;-95
2022/05/10 18:06:13;;;;;;;;;6.80;5.00;;;;;26.57;35.23;101758.56;4929965;28;47624;-95
2022/05/10 18:08:39;;;;;;;;;5.00;5.00;;;;;26.74;35.70;101791.03;4924458;28;45542;-95
2022/05/10 18:11:09;;;;;;;;;5.00;5.00;;;;;26.71;35.06;101791.41;4943635;28;45546;-96
2022/05/10 18:13:47;;;;;;;;;6.00;6.00;;;;;26.74;34.29;101801.91;4945346;28;45729;-94
2022/05/10 18:16:35;;;;;;;;;4.20;4.20;;;;;26.42;34.80;101749.53;4939715;28;48098;-94
2022/05/10 18:19:13;;;;;;;;;;;;;;;;;;;;;
2022/05/10 18:21:39;;;;;;;;;5.60;5.60;;;;;26.81;34.44;101818.38;4936757;28;68103;-94
2022/05/10 18:24:10;;;;;;;;;6.00;6.00;;;;;26.66;36.11;101793.84;4923799;28;45394;-96
2022/05/10 18:26:37;;;;;;;;;5.80;4.40;;;;;26.89;35.34;101829.16;4940742;28;46811;-93
2022/05/10 18:29:35;;;;;;;;;5.40;4.80;;;;;26.63;35.70;101796.94;4909347;28;45540;-94
2022/05/10 18:33:06;;;;;;;;;;;;;;;;;;;;;
2022/05/10 18:38:59;;;;;;;;;6.00;6.00;;;;;27.04;35.48;101876.47;4905720;28;46393;-93
2022/05/10 18:41:50;;;;;;;;;7.80;5.00;;;;;26.99;36.64;101869.69;4882995;28;45652;-92
2022/05/10 18:44:18;;;;;;;;;6.40;6.00;;;;;26.87;36.19;101854.88;4885026;28;45479;-94
2022/05/10 18:46:56;;;;;;;;;;;;;;;;;;;;;
2022/05/10 18:49:56;;;;;;;;;5.20;5.00;;;;;26.45;36.85;101788.09;4877723;28;76051;-94
2022/05/10 18:52:56;;;;;;;;;4.60;4.60;;;;;26.10;36.30;101750.50;4893051;28;45609;-93
2022/05/10 18:55:44;;;;;;;;;6.40;5.80;;;;;26.68;36.39;101846.19;4880005;28;46457;-93
2022/05/10 18:58:13;;;;;;;;;8.60;8.60;;;;;26.42;36.08;101809.34;4878422;28;45673;-93
2022/05/10 19:00:47;;;;;;;;;7.00;7.00;;;;;26.50;36.64;101828.34;4865572;28;47342;-95
2022/05/10 19:03:17;;;;;;;;;7.60;7.60;;;;;26.03;36.43;101752.22;4881241;29;45658;-95
2022/05/10 19:05:51;;;;;;;;;6.60;6.60;;;;;26.73;36.63;101871.00;4861957;28;45692;-93
2022/05/10 19:08:37;;;;;;;;;6.80;6.40;;;;;26.54;36.64;101850.56;4880154;29;45539;-93
2022/05/10 19:11:28;;;;;;;;;5.60;5.60;;;;;26.18;36.76;101803.94;4894969;28;46784;-95
2022/05/10 19:14:36;;;;;;;;;8.00;7.00;;;;;25.94;36.76;101772.34;4879512;28;45631;-95
2022/05/10 19:17:31;;;;;;;;;9.00;7.40;;;;;26.29;37.67;101838.00;4854572;29;45467;-95
2022/05/10 19:19:57;;;;;;;;;6.40;5.00;;;;;26.09;38.19;101810.47;4852689;29;45494;-93
2022/05/10 19:23:23;;;;;;;;;9.50;8.50;;;;;26.47;38.33;101883.13;4874699;29;46992;-93
2022/05/10 19:25:49;;;;;;;;;8.00;8.00;;;;;25.93;38.19;101800.56;4871270;29;47639;-95
2022/05/10 19:28:14;;;;;;;;;8.25;8.25;;;;;26.03;38.68;101817.47;4845995;29;45496;-96
2022/05/10 19:30:42;;;;;;;;;10.00;10.00;;;;;25.50;38.90;101748.34;4874650;29;45284;-95
2022/05/10 19:33:08;;;;;;;;;12.60;11.60;;;;;26.09;39.27;101846.66;4861940;29;47282;-95
2022/05/10 19:35:34;;;;;;;;;8.25;8.25;;;;;25.87;39.13;101813.84;4875838;28;45666;-95
2022/05/10 19:37:59;;;;;;;;;10.00;10.00;;;;;26.33;39.25;101899.16;4857903;29;45598;-95
2022/05/10 19:40:26;;;;;;;;;9.00;9.00;;;;;25.48;38.96;101767.50;4877130;29;45711;-94
2022/05/10 19:42:52;;;;;;;;;8.00;8.00;;;;;25.95;39.29;101859.16;4880820;29;47864;-95
2022/05/10 19:45:18;;;;;;;;;8.50;8.50;;;;;25.75;38.51;101820.69;4863654;28;45657;-95
2022/05/10 19:47:46;;;;;;;;;8.25;6.75;;;;;25.83;39.05;101838.81;4880915;28;45336;-96
2022/05/10 19:50:19;;;;;;;;;7.20;6.80;;;;;25.40;39.07;101781.13;4870246;29;45652;-95
2022/05/10 20:09:28;;;;;;;;;11.00;10.20;;;;;25.17;40.58;101792.78;4867474;29;45197;-96
2022/05/10 20:12:54;;;;;;;;;12.20;11.80;;;;;25.13;40.54;101802.28;4804731;29;44923;-96
2022/05/10 20:16:18;;;;;;;;;9.60;8.80;;;;;24.96;41.18;101785.19;4768759;29;45457;-96
